createdAt,value
2023-11-03T00:02:37.875Z,4.73
2023-11-03T00:05:24.220Z,6.30
2023-11-03T00:08:12.163Z,5.57
2023-11-03T00:10:54.682Z,6.00
2023-11-03T00:13:52.838Z,5.67
2023-11-03T00:16:58.076Z,7.37
2023-11-03T00:19:41.663Z,5.37
2023-11-03T00:22:27.713Z,5.30
2023-11-03T00:25:12.976Z,5.00
2023-11-03T00:27:56.895Z,4.10
2023-11-03T00:30:40.318Z,4.50
2023-11-03T00:36:50.603Z,5.20
2023-11-03T00:39:31.564Z,5.87
2023-11-03T00:42:16.413Z,5.60
2023-11-03T00:45:04.209Z,5.87
2023-11-03T00:47:46.733Z,5.83
2023-11-03T00:50:40.016Z,5.53
2023-11-03T00:53:22.016Z,5.30
2023-11-03T00:56:06.561Z,8.90
2023-11-03T00:59:23.966Z,11.60
2023-11-03T01:02:06.423Z,8.97
2023-11-03T01:04:50.591Z,6.90
2023-11-03T01:07:33.652Z,7.40
2023-11-03T01:10:18.907Z,11.10
2023-11-03T01:13:00.812Z,6.20
2023-11-03T01:15:44.306Z,7.20
2023-11-03T01:18:28.517Z,4.73
2023-11-03T01:24:38.344Z,5.30
2023-11-03T01:27:18.510Z,6.00
2023-11-03T01:30:01.630Z,5.40
2023-11-03T01:32:52.371Z,6.37
2023-11-03T01:35:34.192Z,7.00
2023-11-03T01:38:15.900Z,7.30
2023-11-03T01:40:56.461Z,6.10
2023-11-03T01:43:41.810Z,7.90
2023-11-03T01:46:53.743Z,9.33
2023-11-03T01:50:12.243Z,6.00
2023-11-03T01:52:56.113Z,6.77
2023-11-03T01:55:41.942Z,5.53
2023-11-03T01:58:25.671Z,6.43
2023-11-03T02:01:13.580Z,7.23
2023-11-03T02:04:11.899Z,6.60
2023-11-03T02:10:11.575Z,5.90
2023-11-03T02:12:51.752Z,5.60
2023-11-03T02:15:35.520Z,7.37
2023-11-03T02:18:24.591Z,5.33
2023-11-03T02:21:36.196Z,6.80
2023-11-03T02:27:48.760Z,6.03
2023-11-03T02:30:34.558Z,6.57
2023-11-03T02:33:17.841Z,5.00
2023-11-03T02:35:59.872Z,5.53
2023-11-03T02:38:43.392Z,5.33
2023-11-03T02:41:46.021Z,6.07
2023-11-03T02:44:47.826Z,5.37
2023-11-03T02:47:53.628Z,6.47
2023-11-03T02:50:37.226Z,6.83
2023-11-03T02:53:39.893Z,5.70
2023-11-03T02:56:34.652Z,6.23
2023-11-03T02:59:23.293Z,6.43
2023-11-03T03:05:22.832Z,6.27
2023-11-03T03:08:06.711Z,4.77
2023-11-03T03:13:51.964Z,6.20
2023-11-03T03:16:37.321Z,5.40
2023-11-03T03:19:23.179Z,6.27
2023-11-03T03:22:06.407Z,5.87
2023-11-03T03:24:50.834Z,6.40
2023-11-03T03:30:39.057Z,5.97
2023-11-03T03:36:24.671Z,5.23
2023-11-03T03:39:06.109Z,5.43
2023-11-03T03:41:50.143Z,6.47
2023-11-03T03:51:15.404Z,5.90
2023-11-03T03:53:54.440Z,5.23
2023-11-03T03:56:41.833Z,8.03
2023-11-03T03:59:23.504Z,4.30
2023-11-03T04:02:12.042Z,5.23
2023-11-03T04:05:20.646Z,6.70
2023-11-03T04:08:24.501Z,4.70
2023-11-03T04:11:16.093Z,5.00
2023-11-03T04:13:58.547Z,8.17
2023-11-03T04:16:49.751Z,3.77
2023-11-03T04:19:31.419Z,4.27
2023-11-03T04:22:21.712Z,5.87
2023-11-03T04:25:13.616Z,4.37
2023-11-03T04:27:53.877Z,5.90
2023-11-03T04:33:54.509Z,8.20
2023-11-03T04:36:39.814Z,6.10
2023-11-03T04:39:22.442Z,5.97
2023-11-03T04:42:06.073Z,5.50
2023-11-03T04:44:54.832Z,8.30
2023-11-03T04:47:34.880Z,10.93
2023-11-03T04:50:21.963Z,20.53
2023-11-03T04:53:15.606Z,29.77
2023-11-03T04:56:19.234Z,10.17
2023-11-03T04:59:01.675Z,6.40
2023-11-03T05:01:44.775Z,5.13
2023-11-03T05:04:30.092Z,7.07
2023-11-03T05:07:17.191Z,15.40
2023-11-03T05:10:01.052Z,13.30
2023-11-03T05:12:41.806Z,8.77
2023-11-03T05:15:28.551Z,7.73
2023-11-03T05:18:29.138Z,12.07
2023-11-03T05:21:18.261Z,8.50
2023-11-03T05:23:53.055Z,9.60
2023-11-03T05:26:38.741Z,7.97
2023-11-03T05:29:28.110Z,7.77
2023-11-03T05:32:13.271Z,8.60
2023-11-03T05:34:56.901Z,11.33
2023-11-03T05:37:43.647Z,18.77
2023-11-03T05:40:28.555Z,11.97
2023-11-03T05:43:12.048Z,30.03
2023-11-03T05:46:22.951Z,33.47
2023-11-03T05:49:01.908Z,20.70
2023-11-03T05:51:32.483Z,29.63
2023-11-03T05:54:14.585Z,41.57
2023-11-03T05:56:56.604Z,20.17
2023-11-03T05:59:38.121Z,25.70
2023-11-03T06:02:25.248Z,20.47
2023-11-03T06:05:08.751Z,26.63
2023-11-03T06:07:54.053Z,34.53
2023-11-03T06:10:38.550Z,39.93
2023-11-03T06:13:29.478Z,32.90
2023-11-03T06:16:24.615Z,28.33
2023-11-03T06:19:12.362Z,25.40
2023-11-03T06:21:54.272Z,28.13
2023-11-03T06:24:35.703Z,38.57
2023-11-03T06:27:19.800Z,15.93
2023-11-03T06:30:07.106Z,13.73
2023-11-03T06:32:50.703Z,18.03
2023-11-03T06:35:36.725Z,17.47
2023-11-03T06:41:33.512Z,23.17
2023-11-03T06:44:32.069Z,14.53
2023-11-03T06:47:16.131Z,10.70
2023-11-03T06:54:14.996Z,8.80
2023-11-03T06:57:16.420Z,11.77
2023-11-03T07:00:03.078Z,7.80
2023-11-03T07:02:49.059Z,6.83
2023-11-03T07:05:35.290Z,7.43
2023-11-03T07:11:34.713Z,7.93
2023-11-03T07:14:34.443Z,7.70
2023-11-03T07:17:22.986Z,7.67
2023-11-03T07:20:05.533Z,10.17
2023-11-03T07:22:48.125Z,8.40
2023-11-03T07:25:34.002Z,7.57
2023-11-03T07:28:16.498Z,7.73
2023-11-03T07:34:09.598Z,6.97
2023-11-03T07:37:22.066Z,6.90
2023-11-03T07:40:14.091Z,5.97
2023-11-03T07:42:55.284Z,5.40
2023-11-03T07:45:37.760Z,5.37
2023-11-03T07:48:20.179Z,6.97
2023-11-03T07:51:24.369Z,5.60
2023-11-03T07:54:04.140Z,4.90
2023-11-03T07:56:55.921Z,5.97
2023-11-03T08:00:05.162Z,6.40
2023-11-03T08:02:55.321Z,5.60
2023-11-03T08:05:38.166Z,5.47
2023-11-03T08:08:30.620Z,4.53
2023-11-03T08:14:25.728Z,6.43
2023-11-03T08:17:45.604Z,3.87
2023-11-03T08:20:32.643Z,3.90
2023-11-03T08:23:14.711Z,4.93
2023-11-03T08:25:59.821Z,7.50
2023-11-03T08:29:08.934Z,5.87
2023-11-03T08:35:15.631Z,4.47
2023-11-03T08:38:00.651Z,3.50
2023-11-03T08:40:46.710Z,6.17
2023-11-03T08:43:46.943Z,6.80
2023-11-03T08:46:46.444Z,6.70
2023-11-03T08:49:33.920Z,9.03
2023-11-03T08:55:24.860Z,4.40
2023-11-03T08:58:18.225Z,4.10
2023-11-03T09:01:34.281Z,5.47
2023-11-03T09:04:31.629Z,3.57
2023-11-03T09:07:20.494Z,3.70
2023-11-03T09:10:37.590Z,3.87
2023-11-03T09:13:19.889Z,13.00
2023-11-03T09:16:22.682Z,5.20
2023-11-03T09:19:23.626Z,5.97
2023-11-03T09:22:09.182Z,4.47
2023-11-03T09:24:57.897Z,2.90
2023-11-03T09:28:05.028Z,4.47
2023-11-03T09:30:37.363Z,6.40
2023-11-03T09:33:20.307Z,2.33
2023-11-03T09:36:06.298Z,4.40
2023-11-03T09:39:20.176Z,6.70
2023-11-03T09:42:14.924Z,7.77
2023-11-03T09:44:56.622Z,6.27
2023-11-03T09:47:48.318Z,16.20
2023-11-03T09:50:47.571Z,3.90
2023-11-03T09:56:31.997Z,4.77
2023-11-03T09:58:59.452Z,10.73
2023-11-03T10:01:27.253Z,7.37
2023-11-03T10:03:55.691Z,2.37
2023-11-03T10:06:25.097Z,5.10
2023-11-03T10:08:53.330Z,8.70
2023-11-03T10:11:20.635Z,6.70
2023-11-03T10:13:48.179Z,5.60
2023-11-03T10:16:15.514Z,4.50
2023-11-03T10:18:43.365Z,3.63
2023-11-03T10:21:11.189Z,24.30
2023-11-03T10:23:39.064Z,3.63
2023-11-03T10:26:07.645Z,7.83
2023-11-03T10:28:35.884Z,3.47
2023-11-03T10:31:06.039Z,2.67
2023-11-03T10:33:33.449Z,4.27
2023-11-03T10:36:02.342Z,8.70
2023-11-03T10:38:29.683Z,2.23
2023-11-03T10:41:02.087Z,3.80
2023-11-03T10:43:30.781Z,6.20
2023-11-03T10:46:06.979Z,3.80
2023-11-03T10:49:21.592Z,6.60
2023-11-03T10:51:58.101Z,2.80
2023-11-03T10:54:47.284Z,5.93
2023-11-03T10:57:37.287Z,3.13
2023-11-03T11:00:35.855Z,3.17
2023-11-03T11:03:16.582Z,4.60
2023-11-03T11:06:22.037Z,2.97
2023-11-03T11:08:55.515Z,6.33
2023-11-03T11:11:26.693Z,4.50
2023-11-03T11:13:54.247Z,5.10
2023-11-03T11:16:21.815Z,4.23
2023-11-03T11:18:58.398Z,4.20
2023-11-03T11:21:36.389Z,3.00
2023-11-03T11:24:04.112Z,3.23
2023-11-03T11:26:35.993Z,5.03
2023-11-03T11:29:05.199Z,3.67
2023-11-03T11:31:35.079Z,2.70
2023-11-03T11:34:22.415Z,2.23
2023-11-03T11:36:52.654Z,5.33
2023-11-03T11:39:24.471Z,6.87
2023-11-03T11:42:01.925Z,4.27
2023-11-03T11:44:32.207Z,2.43
2023-11-03T11:47:02.241Z,2.50
2023-11-03T11:49:33.237Z,2.80
2023-11-03T11:52:03.282Z,4.93
2023-11-03T11:54:30.642Z,1.77
2023-11-03T11:56:58.490Z,2.43
2023-11-03T11:59:26.591Z,3.73
2023-11-03T12:01:54.873Z,1.90
2023-11-03T12:04:25.373Z,5.33
2023-11-03T12:06:53.621Z,7.10
2023-11-03T12:09:21.221Z,4.47
2023-11-03T12:11:48.522Z,1.63
2023-11-03T12:14:15.877Z,3.53
2023-11-03T12:16:43.439Z,5.90
2023-11-03T12:19:15.396Z,17.33
2023-11-03T12:21:45.519Z,14.10
2023-11-03T12:24:14.689Z,11.97
2023-11-03T12:26:42.378Z,5.00
2023-11-03T12:29:30.750Z,2.87
2023-11-03T12:32:03.126Z,7.73
2023-11-03T12:34:31.511Z,3.50
2023-11-03T12:37:00.572Z,3.33
2023-11-03T12:39:29.810Z,3.43
2023-11-03T12:42:15.507Z,6.30
2023-11-03T12:45:07.082Z,2.40
2023-11-03T12:47:52.198Z,3.50
2023-11-03T12:50:27.119Z,5.27
2023-11-03T12:52:57.562Z,10.47
2023-11-03T12:55:27.685Z,2.80
2023-11-03T12:57:57.507Z,4.07
2023-11-03T13:00:38.229Z,4.50
2023-11-03T13:03:05.780Z,3.60
2023-11-03T13:05:34.665Z,4.00
2023-11-03T13:08:04.515Z,2.83
2023-11-03T13:10:33.116Z,4.17
2023-11-03T13:13:01.931Z,1.93
2023-11-03T13:15:30.540Z,7.37
2023-11-03T13:17:58.091Z,4.40
2023-11-03T13:20:25.873Z,4.90
2023-11-03T13:23:00.575Z,3.80
2023-11-03T13:25:30.226Z,4.60
2023-11-03T13:27:58.419Z,6.20
2023-11-03T13:30:26.254Z,4.60
2023-11-03T13:32:54.030Z,2.70
2023-11-03T13:35:23.049Z,3.43
2023-11-03T13:37:50.696Z,8.80
2023-11-03T13:40:19.454Z,3.80
2023-11-03T13:42:46.927Z,4.00
2023-11-03T13:45:15.006Z,2.40
2023-11-03T13:47:42.908Z,4.53
2023-11-03T13:50:20.538Z,5.20
2023-11-03T13:52:50.081Z,5.80
2023-11-03T13:55:18.622Z,4.20
2023-11-03T13:57:46.403Z,3.20
2023-11-03T14:00:15.532Z,8.70
2023-11-03T14:02:42.992Z,6.20
2023-11-03T14:05:13.081Z,3.30
2023-11-03T14:07:43.635Z,6.70
2023-11-03T14:10:15.869Z,4.20
2023-11-03T14:12:45.365Z,5.83
2023-11-03T14:15:14.389Z,7.47
2023-11-03T14:17:43.665Z,3.53
2023-11-03T14:20:12.248Z,5.53
2023-11-03T14:22:43.184Z,4.23
2023-11-03T14:25:13.971Z,2.97
2023-11-03T14:27:43.268Z,3.43
2023-11-03T14:30:13.936Z,3.80
2023-11-03T14:32:42.140Z,5.50
2023-11-03T14:35:13.917Z,5.37
2023-11-03T14:37:42.845Z,3.73
2023-11-03T14:40:14.428Z,4.97
2023-11-03T14:42:44.605Z,4.00
2023-11-03T14:45:12.584Z,5.20
2023-11-03T14:47:40.122Z,3.37
2023-11-03T14:50:08.129Z,3.73
2023-11-03T14:52:35.793Z,5.60
2023-11-03T14:55:07.721Z,5.03
2023-11-03T14:57:37.916Z,3.70
2023-11-03T15:00:06.385Z,5.00
2023-11-03T15:02:34.057Z,5.27
2023-11-03T15:05:02.491Z,6.20
2023-11-03T15:07:31.639Z,12.87
2023-11-03T15:09:59.142Z,5.83
2023-11-03T15:12:26.670Z,6.53
2023-11-03T15:14:54.933Z,4.67
2023-11-03T15:17:22.829Z,5.03
2023-11-03T15:19:50.333Z,6.90
2023-11-03T15:22:17.868Z,14.27
2023-11-03T15:24:45.472Z,4.20
2023-11-03T15:27:13.218Z,7.60
2023-11-03T15:29:40.992Z,7.43
2023-11-03T15:32:08.549Z,10.40
2023-11-03T15:34:36.347Z,6.53
2023-11-03T15:37:04.912Z,8.77
2023-11-03T15:39:35.855Z,5.57
2023-11-03T15:42:05.839Z,5.50
2023-11-03T15:44:33.303Z,3.40
2023-11-03T15:47:00.803Z,6.70
2023-11-03T15:49:31.123Z,4.27
2023-11-03T15:51:59.799Z,4.00
2023-11-03T15:54:28.139Z,9.00
2023-11-03T15:56:57.274Z,8.60
2023-11-03T15:59:24.808Z,7.40
2023-11-03T16:01:52.060Z,25.13
2023-11-03T16:04:25.235Z,11.33
2023-11-03T16:06:52.710Z,11.67
2023-11-03T16:09:21.783Z,25.87
2023-11-03T16:11:49.331Z,16.93
2023-11-03T16:14:16.606Z,15.33
2023-11-03T16:16:44.043Z,9.83
2023-11-03T16:19:14.422Z,4.20
2023-11-03T16:21:42.199Z,4.50
2023-11-03T16:24:12.742Z,6.00
2023-11-03T16:26:41.899Z,4.40
2023-11-03T16:29:09.264Z,6.40
2023-11-03T16:31:36.655Z,9.30
2023-11-03T16:34:04.176Z,10.77
2023-11-03T16:36:37.477Z,8.53
2023-11-03T16:39:05.513Z,4.20
2023-11-03T16:41:33.378Z,7.60
2023-11-03T16:44:00.697Z,12.43
2023-11-03T16:46:28.072Z,7.33
2023-11-03T16:48:55.562Z,4.30
2023-11-03T16:51:22.893Z,5.73
2023-11-03T16:53:51.621Z,8.70
2023-11-03T16:56:19.179Z,13.97
2023-11-03T16:58:46.562Z,9.43
2023-11-03T17:01:14.574Z,6.10
2023-11-03T17:03:42.340Z,3.40
2023-11-03T17:06:09.891Z,4.60
2023-11-03T17:08:38.795Z,3.83
2023-11-03T17:11:07.377Z,9.57
2023-11-03T17:13:36.617Z,4.20
2023-11-03T17:16:04.152Z,8.50
2023-11-03T17:18:31.600Z,8.63
2023-11-03T17:21:01.264Z,4.20
2023-11-03T17:23:28.566Z,6.70
2023-11-03T17:25:55.986Z,4.30
2023-11-03T17:28:25.245Z,12.03
2023-11-03T17:30:52.660Z,6.77
2023-11-03T17:33:20.077Z,8.03
2023-11-03T17:35:47.529Z,3.33
2023-11-03T17:38:14.825Z,10.70
2023-11-03T17:40:43.589Z,6.03
2023-11-03T17:43:11.026Z,8.10
2023-11-03T17:45:38.467Z,4.13
2023-11-03T17:48:05.967Z,3.17
2023-11-03T17:50:33.495Z,5.70
2023-11-03T17:53:00.987Z,3.17
2023-11-03T17:55:28.355Z,4.50
2023-11-03T17:57:56.501Z,3.93
2023-11-03T18:00:26.478Z,3.47
2023-11-03T18:02:55.140Z,5.93
2023-11-03T18:05:25.050Z,12.93
2023-11-03T18:07:52.730Z,6.27
2023-11-03T18:10:21.413Z,5.97
2023-11-03T18:12:51.707Z,4.00
2023-11-03T18:15:22.481Z,7.63
2023-11-03T18:17:50.192Z,3.37
2023-11-03T18:20:19.370Z,6.13
2023-11-03T18:22:49.972Z,4.67
2023-11-03T18:25:20.966Z,3.27
2023-11-03T18:27:49.413Z,2.73
2023-11-03T18:30:17.170Z,6.30
2023-11-03T18:32:46.094Z,4.77
2023-11-03T18:35:13.697Z,6.30
2023-11-03T18:37:43.123Z,6.60
2023-11-03T18:40:15.513Z,8.80
2023-11-03T18:42:43.580Z,4.07
2023-11-03T18:45:12.781Z,3.97
2023-11-03T18:47:40.463Z,6.07
2023-11-03T18:52:39.896Z,2.90
2023-11-03T18:56:05.078Z,3.10
2023-11-03T19:02:07.069Z,7.60
2023-11-03T19:04:42.091Z,5.63
2023-11-03T19:07:29.257Z,4.17
2023-11-03T19:08:52.511Z,8.50
2023-11-03T19:11:20.042Z,6.87
2023-11-03T19:13:48.378Z,4.40
2023-11-03T19:16:15.921Z,7.43
2023-11-03T19:18:43.615Z,5.73
2023-11-03T19:21:10.994Z,6.73
2023-11-03T19:23:39.095Z,4.23
2023-11-03T19:26:06.473Z,7.63
2023-11-03T19:28:36.705Z,8.70
2023-11-03T19:31:05.611Z,3.57
2023-11-03T19:33:33.530Z,6.20
2023-11-03T19:36:01.628Z,4.43
2023-11-03T19:38:29.664Z,6.37
2023-11-03T19:40:57.079Z,9.63
2023-11-03T19:43:24.456Z,9.33
2023-11-03T19:45:52.091Z,9.77
2023-11-03T19:48:21.115Z,4.47
2023-11-03T19:50:48.490Z,6.30
2023-11-03T19:53:17.755Z,8.30
2023-11-03T19:55:46.103Z,3.37
2023-11-03T19:58:14.324Z,4.90
2023-11-03T20:00:44.402Z,5.97
2023-11-03T20:03:11.873Z,3.93
2023-11-03T20:05:39.950Z,8.23
2023-11-03T20:08:10.805Z,4.40
2023-11-03T20:10:38.638Z,3.93
2023-11-03T20:13:06.899Z,5.17
2023-11-03T20:15:37.371Z,8.00
2023-11-03T20:18:06.329Z,8.83
2023-11-03T20:20:34.869Z,4.00
2023-11-03T20:23:02.321Z,6.70
2023-11-03T20:25:29.610Z,3.60
2023-11-03T20:27:56.986Z,8.40
2023-11-03T20:30:24.342Z,7.83
2023-11-03T20:32:52.910Z,5.50
2023-11-03T20:35:20.330Z,6.00
2023-11-03T20:37:47.861Z,4.63
2023-11-03T20:40:15.465Z,6.83
2023-11-03T20:42:43.023Z,7.33
2023-11-03T20:45:12.176Z,7.40
2023-11-03T20:47:40.052Z,5.93
2023-11-03T20:50:10.527Z,8.50
2023-11-03T20:52:38.182Z,8.33
2023-11-03T20:55:07.103Z,5.17
2023-11-03T20:57:34.524Z,6.50
2023-11-03T21:00:02.410Z,5.27
2023-11-03T21:02:30.742Z,5.27
2023-11-03T21:04:58.288Z,8.93
2023-11-03T21:07:25.960Z,8.00
2023-11-03T21:09:53.440Z,4.97
2023-11-03T21:12:20.782Z,3.37
2023-11-03T21:14:48.347Z,4.47
2023-11-03T21:17:17.110Z,4.73
2023-11-03T21:19:44.512Z,7.27
2023-11-03T21:22:11.947Z,6.73
2023-11-03T21:24:41.721Z,6.83
2023-11-03T21:27:09.408Z,6.70
2023-11-03T21:29:37.625Z,6.83
2023-11-03T21:32:05.365Z,4.80
2023-11-03T21:34:32.824Z,5.10
2023-11-03T21:37:00.226Z,10.10
2023-11-03T21:39:29.444Z,6.90
2023-11-03T21:41:56.805Z,8.23
2023-11-03T21:44:25.873Z,5.23
2023-11-03T21:46:53.310Z,6.80
2023-11-03T21:49:20.663Z,6.87
2023-11-03T21:51:50.340Z,6.03
2023-11-03T21:54:19.670Z,6.17
2023-11-03T21:56:47.504Z,6.30
2023-11-03T21:59:14.948Z,4.90
2023-11-03T22:01:42.362Z,12.00
2023-11-03T22:04:09.775Z,4.50
2023-11-03T22:06:37.233Z,11.77
2023-11-03T22:09:09.677Z,6.20
2023-11-03T22:11:38.270Z,4.27
2023-11-03T22:14:05.683Z,6.57
2023-11-03T22:16:33.442Z,8.47
2023-11-03T22:19:01.315Z,8.33
2023-11-03T22:21:28.958Z,6.70
2023-11-03T22:23:56.262Z,5.10
2023-11-03T22:26:32.600Z,6.63
2023-11-03T22:29:04.890Z,6.37
2023-11-03T22:31:32.297Z,4.90
2023-11-03T22:34:00.099Z,4.70
2023-11-03T22:36:28.299Z,4.97
2023-11-03T22:38:55.665Z,7.50
2023-11-03T22:41:24.395Z,4.97
2023-11-03T22:43:51.892Z,14.33
2023-11-03T22:46:19.636Z,5.40
2023-11-03T22:48:47.207Z,7.57
2023-11-03T22:51:18.468Z,3.60
2023-11-03T22:53:48.127Z,4.57
2023-11-03T22:56:23.782Z,4.60
2023-11-03T22:58:54.517Z,8.73
2023-11-03T23:01:21.972Z,8.80
2023-11-03T23:03:49.317Z,9.57
2023-11-03T23:06:19.630Z,4.33
2023-11-03T23:08:48.811Z,5.70
2023-11-03T23:11:18.935Z,5.97
2023-11-03T23:13:46.518Z,7.63
2023-11-03T23:16:13.988Z,8.93
2023-11-03T23:18:41.362Z,4.97
2023-11-03T23:21:12.855Z,5.23
2023-11-03T23:23:41.725Z,3.77
2023-11-03T23:26:09.031Z,6.43
2023-11-03T23:28:36.423Z,7.63
2023-11-03T23:31:04.110Z,4.20
2023-11-03T23:33:33.208Z,3.97
2023-11-03T23:36:00.869Z,9.80
2023-11-03T23:38:28.585Z,4.10
2023-11-03T23:40:55.905Z,9.53
2023-11-03T23:43:23.257Z,4.57
2023-11-03T23:45:51.987Z,2.83
2023-11-03T23:48:21.881Z,7.30
2023-11-03T23:50:49.598Z,4.13
2023-11-03T23:53:17.295Z,5.93
2023-11-03T23:55:44.677Z,5.00
2023-11-03T23:58:12.102Z,7.93
